createdAt,value
2023-04-08T00:00:30.000Z,6
2023-04-08T00:01:47.000Z,6.4
2023-04-08T00:03:03.000Z,6.1
2023-04-08T00:04:19.000Z,6.3
2023-04-08T00:05:35.000Z,6.2
2023-04-08T00:06:51.000Z,6.5
2023-04-08T00:08:07.000Z,6.3
2023-04-08T00:09:23.000Z,6.3
2023-04-08T00:10:39.000Z,5.8
2023-04-08T00:11:55.000Z,6.2
2023-04-08T00:13:11.000Z,6.4
2023-04-08T00:14:27.000Z,6.6
2023-04-08T00:15:43.000Z,6.2
2023-04-08T00:16:58.000Z,6.5
2023-04-08T00:18:13.000Z,6.9
2023-04-08T00:19:30.000Z,6.9
2023-04-08T00:20:46.000Z,6.7
2023-04-08T00:22:01.000Z,7.2
2023-04-08T00:23:16.000Z,7.7
2023-04-08T00:24:32.000Z,8.7
2023-04-08T00:25:48.000Z,7.9
2023-04-08T00:28:20.000Z,7.7
2023-04-08T00:29:37.000Z,8.2
2023-04-08T00:30:53.000Z,8.6
2023-04-08T00:32:09.000Z,8.1
2023-04-08T00:33:25.000Z,8.6
2023-04-08T00:34:41.000Z,8.2
2023-04-08T00:35:57.000Z,8.1
2023-04-08T00:37:13.000Z,8.7
2023-04-08T00:38:30.000Z,8.4
2023-04-08T00:39:45.000Z,8.6
2023-04-08T00:41:01.000Z,8.5
2023-04-08T00:42:17.000Z,8.7
2023-04-08T00:43:33.000Z,8.3
2023-04-08T00:44:49.000Z,8.3
2023-04-08T00:46:05.000Z,8.1
2023-04-08T00:47:21.000Z,8.2
2023-04-08T00:48:38.000Z,8.3
2023-04-08T00:49:53.000Z,8.6
2023-04-08T00:51:08.000Z,8.7
2023-04-08T00:52:23.000Z,8.6
2023-04-08T00:53:38.000Z,8.4
2023-04-08T00:54:54.000Z,8.7
2023-04-08T00:56:10.000Z,8.1
2023-04-08T00:57:27.000Z,8.2
2023-04-08T00:58:43.000Z,8.4
2023-04-08T00:59:59.000Z,8.5
2023-04-08T01:01:15.000Z,8.7
2023-04-08T01:02:31.000Z,8.5
2023-04-08T01:03:47.000Z,8.2
2023-04-08T01:05:03.000Z,9.6
2023-04-08T01:06:20.000Z,9
2023-04-08T01:07:36.000Z,9
2023-04-08T01:08:52.000Z,8.7
2023-04-08T01:10:07.000Z,8.3
2023-04-08T01:11:23.000Z,8.8
2023-04-08T01:12:39.000Z,8.5
2023-04-08T01:13:55.000Z,8.6
2023-04-08T01:15:11.000Z,8.8
2023-04-08T01:16:28.000Z,8.4
2023-04-08T01:17:44.000Z,8.6
2023-04-08T01:18:59.000Z,9
2023-04-08T01:20:14.000Z,8.6
2023-04-08T01:21:30.000Z,9.2
2023-04-08T01:22:46.000Z,9
2023-04-08T01:24:02.000Z,9.2
2023-04-08T01:25:19.000Z,8.8
2023-04-08T01:26:35.000Z,8.8
2023-04-08T01:27:51.000Z,9.5
2023-04-08T01:29:07.000Z,9.3
2023-04-08T01:30:23.000Z,8.7
2023-04-08T01:31:39.000Z,9.8
2023-04-08T01:32:55.000Z,9.3
2023-04-08T01:34:12.000Z,9.5
2023-04-08T01:35:28.000Z,9.6
2023-04-08T01:36:43.000Z,9.6
2023-04-08T01:37:59.000Z,9.5
2023-04-08T01:39:15.000Z,9.4
2023-04-08T01:40:31.000Z,9.6
2023-04-08T01:41:47.000Z,9.6
2023-04-08T01:43:03.000Z,9.8
2023-04-08T01:44:20.000Z,9.4
2023-04-08T01:45:35.000Z,10.6
2023-04-08T01:46:50.000Z,9.9
2023-04-08T01:48:05.000Z,9.3
2023-04-08T01:49:20.000Z,9.6
2023-04-08T01:50:36.000Z,9.3
2023-04-08T01:51:52.000Z,9
2023-04-08T01:53:09.000Z,9.2
2023-04-08T01:54:25.000Z,9.5
2023-04-08T01:55:41.000Z,9.7
2023-04-08T01:56:57.000Z,9.3
2023-04-08T01:59:29.000Z,10.1
2023-04-08T02:00:45.000Z,9.8
2023-04-08T02:02:02.000Z,10.2
2023-04-08T02:03:18.000Z,10.2
2023-04-08T02:04:34.000Z,9.5
2023-04-08T02:05:49.000Z,9.3
2023-04-08T02:07:05.000Z,10.2
2023-04-08T02:08:21.000Z,9.7
2023-04-08T02:09:37.000Z,9.9
2023-04-08T02:10:53.000Z,9.5
2023-04-08T02:12:10.000Z,9.6
2023-04-08T02:13:26.000Z,10.4
2023-04-08T02:14:42.000Z,10.2
2023-04-08T02:15:57.000Z,10
2023-04-08T02:17:12.000Z,9.9
2023-04-08T02:18:28.000Z,9.9
2023-04-08T02:19:43.000Z,10.3
2023-04-08T02:20:59.000Z,10.4
2023-04-08T02:22:15.000Z,9.7
2023-04-08T02:23:31.000Z,10.5
2023-04-08T02:24:47.000Z,10.7
2023-04-08T02:26:03.000Z,11.8
2023-04-08T02:27:19.000Z,12.4
2023-04-08T02:28:35.000Z,10.7
2023-04-08T02:29:52.000Z,12
2023-04-08T02:31:08.000Z,12.4
2023-04-08T02:32:24.000Z,12.1
2023-04-08T02:33:40.000Z,11.6
2023-04-08T02:34:56.000Z,11.8
2023-04-08T02:36:12.000Z,11.4
2023-04-08T02:37:27.000Z,11.7
2023-04-08T02:38:43.000Z,13.1
2023-04-08T02:40:00.000Z,12.9
2023-04-08T02:41:16.000Z,12.8
2023-04-08T02:42:32.000Z,13.7
2023-04-08T02:43:48.000Z,14.4
2023-04-08T02:45:04.000Z,14.2
2023-04-08T02:46:19.000Z,14.1
2023-04-08T02:47:34.000Z,13.4
2023-04-08T02:48:50.000Z,14.6
2023-04-08T02:50:05.000Z,13.3
2023-04-08T02:51:21.000Z,14.3
2023-04-08T02:52:37.000Z,14.5
2023-04-08T02:53:53.000Z,14.6
2023-04-08T02:55:09.000Z,13.1
2023-04-08T02:56:25.000Z,14.6
2023-04-08T02:57:42.000Z,13.7
2023-04-08T02:58:58.000Z,13.9
2023-04-08T03:00:14.000Z,14.6
2023-04-08T03:02:46.000Z,14.1
2023-04-08T03:04:02.000Z,13.2
2023-04-08T03:05:18.000Z,14.3
2023-04-08T03:06:33.000Z,13.5
2023-04-08T03:07:50.000Z,13.3
2023-04-08T03:09:06.000Z,13.2
2023-04-08T03:10:22.000Z,12.8
2023-04-08T03:11:38.000Z,13.4
2023-04-08T03:12:54.000Z,12.6
2023-04-08T03:16:43.000Z,11.6
2023-04-08T03:17:58.000Z,11.8
2023-04-08T03:19:13.000Z,12.5
2023-04-08T03:20:29.000Z,12.6
2023-04-08T03:21:45.000Z,11.8
2023-04-08T03:23:01.000Z,11.9
2023-04-08T03:24:17.000Z,11.1
2023-04-08T03:25:34.000Z,11.7
2023-04-08T03:26:50.000Z,11.7
2023-04-08T03:28:06.000Z,11.3
2023-04-08T03:29:22.000Z,11.8
2023-04-08T03:30:38.000Z,12.4
2023-04-08T03:31:53.000Z,12.2
2023-04-08T03:33:08.000Z,12
2023-04-08T03:34:24.000Z,11.8
2023-04-08T03:36:57.000Z,12
2023-04-08T03:38:13.000Z,11.4
2023-04-08T03:39:29.000Z,11.8
2023-04-08T03:40:45.000Z,11.9
2023-04-08T03:42:01.000Z,12.1
2023-04-08T03:43:17.000Z,12
2023-04-08T03:44:34.000Z,11
2023-04-08T03:45:50.000Z,11.2
2023-04-08T03:47:06.000Z,11.7
2023-04-08T03:48:22.000Z,10.3
2023-04-08T03:49:37.000Z,11.2
2023-04-08T03:50:53.000Z,10.7
2023-04-08T03:52:09.000Z,11.2
2023-04-08T03:53:25.000Z,11.6
2023-04-08T03:54:42.000Z,10.8
2023-04-08T03:55:58.000Z,10.9
2023-04-08T03:57:14.000Z,10.6
2023-04-08T03:58:30.000Z,10.6
2023-04-08T03:59:45.000Z,10.5
2023-04-08T04:01:00.000Z,11.3
2023-04-08T04:02:15.000Z,10.8
2023-04-08T04:03:31.000Z,10.6
2023-04-08T04:04:47.000Z,11.6
2023-04-08T04:06:03.000Z,9.9
2023-04-08T04:07:19.000Z,10.6
2023-04-08T04:08:34.000Z,10.6
2023-04-08T04:09:50.000Z,10.5
2023-04-08T04:11:06.000Z,11
2023-04-08T04:12:23.000Z,10.8
2023-04-08T04:13:39.000Z,11.1
2023-04-08T04:14:55.000Z,11
2023-04-08T04:16:11.000Z,10.7
2023-04-08T04:17:27.000Z,10.7
2023-04-08T04:18:43.000Z,10.9
2023-04-08T04:19:59.000Z,11
2023-04-08T04:21:16.000Z,10.8
2023-04-08T04:22:32.000Z,10.9
2023-04-08T04:23:48.000Z,11.1
2023-04-08T04:25:03.000Z,10.8
2023-04-08T04:26:19.000Z,11.4
2023-04-08T04:27:35.000Z,11.4
2023-04-08T04:28:50.000Z,11.7
2023-04-08T04:30:05.000Z,11.1
2023-04-08T04:31:22.000Z,11.8
2023-04-08T04:32:37.000Z,11.6
2023-04-08T04:33:52.000Z,11.5
2023-04-08T04:35:08.000Z,11.7
2023-04-08T04:36:24.000Z,11.7
2023-04-08T04:37:40.000Z,11.7
2023-04-08T04:38:56.000Z,10.5
2023-04-08T04:40:13.000Z,11.9
2023-04-08T04:41:29.000Z,11.7
2023-04-08T04:42:45.000Z,11.5
2023-04-08T04:44:01.000Z,11.7
2023-04-08T04:45:17.000Z,11.6
2023-04-08T04:46:33.000Z,12.1
2023-04-08T04:47:49.000Z,11.9
2023-04-08T04:49:06.000Z,12.6
2023-04-08T04:50:21.000Z,12.1
2023-04-08T04:51:37.000Z,11.5
2023-04-08T04:52:53.000Z,12.3
2023-04-08T04:54:09.000Z,12.4
2023-04-08T04:55:25.000Z,12.6
2023-04-08T04:56:41.000Z,12.2
2023-04-08T04:57:57.000Z,12.2
2023-04-08T04:59:13.000Z,11.9
2023-04-08T05:00:28.000Z,12.1
2023-04-08T05:01:43.000Z,12.2
2023-04-08T05:02:58.000Z,12.8
2023-04-08T05:04:14.000Z,12.4
2023-04-08T05:05:30.000Z,12.1
2023-04-08T05:06:46.000Z,12.2
2023-04-08T05:08:03.000Z,12.7
2023-04-08T05:09:19.000Z,11.9
2023-04-08T05:10:35.000Z,12.7
2023-04-08T05:11:51.000Z,12.2
2023-04-08T05:13:07.000Z,12.6
2023-04-08T05:14:23.000Z,12
2023-04-08T05:15:39.000Z,12.8
2023-04-08T05:16:56.000Z,12.1
2023-04-08T05:18:12.000Z,12.9
2023-04-08T05:19:28.000Z,13
2023-04-08T05:20:43.000Z,13.5
2023-04-08T05:21:59.000Z,12.1
2023-04-08T05:23:15.000Z,12.3
2023-04-08T05:24:31.000Z,12.3
2023-04-08T05:25:47.000Z,13.7
2023-04-08T05:27:04.000Z,13
2023-04-08T05:28:19.000Z,13.5
2023-04-08T05:29:34.000Z,12.8
2023-04-08T05:30:50.000Z,13.9
2023-04-08T05:32:06.000Z,13
2023-04-08T05:33:22.000Z,13.2
2023-04-08T05:34:38.000Z,13.1
2023-04-08T05:35:55.000Z,13.6
2023-04-08T05:37:11.000Z,13.3
2023-04-08T05:38:27.000Z,13.3
2023-04-08T05:39:43.000Z,13.5
2023-04-08T05:40:59.000Z,13.8
2023-04-08T05:42:15.000Z,13.2
2023-04-08T05:43:31.000Z,13.1
2023-04-08T05:44:47.000Z,13.6
2023-04-08T05:46:03.000Z,12.8
2023-04-08T05:47:19.000Z,12.9
2023-04-08T05:48:35.000Z,13.1
2023-04-08T05:49:51.000Z,13
2023-04-08T05:51:07.000Z,13.5
2023-04-08T05:52:23.000Z,13.4
2023-04-08T05:53:39.000Z,12.2
2023-04-08T05:54:55.000Z,13.4
2023-04-08T05:56:10.000Z,14.1
2023-04-08T05:57:25.000Z,12.5
2023-04-08T05:58:40.000Z,13.1
2023-04-08T05:59:56.000Z,13.2
2023-04-08T06:02:27.000Z,13.2
2023-04-08T06:03:45.000Z,12.9
2023-04-08T06:05:01.000Z,12.7
2023-04-08T06:06:17.000Z,12.8
2023-04-08T06:07:33.000Z,12.6
2023-04-08T06:08:49.000Z,12.8
2023-04-08T06:10:05.000Z,13
2023-04-08T06:11:21.000Z,13
2023-04-08T06:12:38.000Z,13.2
2023-04-08T06:13:54.000Z,13.2
2023-04-08T06:15:09.000Z,12.8
2023-04-08T06:17:41.000Z,13.1
2023-04-08T06:18:56.000Z,13.4
2023-04-08T06:20:11.000Z,13
2023-04-08T06:21:27.000Z,12.8
2023-04-08T06:22:44.000Z,13.6
2023-04-08T06:24:00.000Z,13.3
2023-04-08T06:25:16.000Z,12.4
2023-04-08T06:26:32.000Z,13.7
2023-04-08T06:27:48.000Z,12.8
2023-04-08T06:29:04.000Z,13.2
2023-04-08T06:30:20.000Z,13.6
2023-04-08T06:31:37.000Z,12.7
2023-04-08T06:32:52.000Z,13.6
2023-04-08T06:34:07.000Z,13.6
2023-04-08T06:35:23.000Z,13.1
2023-04-08T06:36:39.000Z,11.9
2023-04-08T06:37:55.000Z,12.8
2023-04-08T06:39:11.000Z,12.7
2023-04-08T06:40:28.000Z,13.2
2023-04-08T06:41:44.000Z,12.1
2023-04-08T06:43:00.000Z,12.6
2023-04-08T06:44:16.000Z,11
2023-04-08T06:45:32.000Z,12
2023-04-08T06:46:48.000Z,8.2
2023-04-08T06:48:04.000Z,11.1
2023-04-08T06:49:20.000Z,11
2023-04-08T06:50:36.000Z,11.4
2023-04-08T06:51:52.000Z,11
2023-04-08T06:53:08.000Z,10.9
2023-04-08T06:54:24.000Z,10.8
2023-04-08T06:55:40.000Z,11.2
2023-04-08T06:56:56.000Z,10.6
2023-04-08T06:59:29.000Z,10.6
2023-04-08T07:00:44.000Z,10.7
2023-04-08T07:03:15.000Z,11.2
2023-04-08T07:04:30.000Z,10.1
2023-04-08T07:05:45.000Z,10.3
2023-04-08T07:07:01.000Z,9.1
2023-04-08T07:08:18.000Z,9.4
2023-04-08T07:09:34.000Z,10.1
2023-04-08T07:10:50.000Z,10.2
2023-04-08T07:12:06.000Z,10.3
2023-04-08T07:13:22.000Z,10
2023-04-08T07:14:38.000Z,9.9
2023-04-08T07:15:54.000Z,10.5
2023-04-08T07:17:10.000Z,10.1
2023-04-08T07:18:27.000Z,9.6
2023-04-08T07:19:43.000Z,10.4
2023-04-08T07:20:59.000Z,9.1
2023-04-08T07:22:14.000Z,7.8
2023-04-08T07:23:30.000Z,9
2023-04-08T07:24:46.000Z,8.6
2023-04-08T07:26:02.000Z,9.7
2023-04-08T07:28:35.000Z,8.3
2023-04-08T07:29:51.000Z,9.2
2023-04-08T07:31:07.000Z,10.4
2023-04-08T07:32:22.000Z,8.8
2023-04-08T07:33:37.000Z,8.4
2023-04-08T07:34:53.000Z,7.4
2023-04-08T07:36:09.000Z,7.8
2023-04-08T07:37:25.000Z,8.2
2023-04-08T07:38:40.000Z,7.9
2023-04-08T07:39:56.000Z,7.8
2023-04-08T07:41:12.000Z,8.4
2023-04-08T07:42:28.000Z,7.6
2023-04-08T07:43:44.000Z,8.8
2023-04-08T07:45:00.000Z,8.8
2023-04-08T07:46:17.000Z,7.9
2023-04-08T07:47:33.000Z,8.1
2023-04-08T07:48:49.000Z,7.9
2023-04-08T07:50:05.000Z,7.4
2023-04-08T07:51:21.000Z,7.7
2023-04-08T07:52:37.000Z,8.3
2023-04-08T07:53:53.000Z,8.2
2023-04-08T07:55:09.000Z,7.7
2023-04-08T07:56:25.000Z,7.7
2023-04-08T07:57:41.000Z,7.8
2023-04-08T07:58:57.000Z,8.5
2023-04-08T08:00:13.000Z,8.1
2023-04-08T08:01:29.000Z,8.3
2023-04-08T08:02:45.000Z,7.3
2023-04-08T08:04:00.000Z,8.6
2023-04-08T08:05:16.000Z,7.7
2023-04-08T08:06:32.000Z,7.6
2023-04-08T08:07:48.000Z,8.9
2023-04-08T08:09:03.000Z,8
2023-04-08T08:10:18.000Z,8.5
2023-04-08T08:11:34.000Z,7.9
2023-04-08T08:12:50.000Z,8.5
2023-04-08T08:14:07.000Z,9.7
2023-04-08T08:15:23.000Z,9.8
2023-04-08T08:16:39.000Z,9.4
2023-04-08T08:17:55.000Z,11.2
2023-04-08T08:19:11.000Z,10.6
2023-04-08T08:20:27.000Z,10.8
2023-04-08T08:21:43.000Z,12.5
2023-04-08T08:22:59.000Z,10.6
2023-04-08T08:24:15.000Z,8.6
2023-04-08T08:25:31.000Z,10.3
2023-04-08T08:26:47.000Z,9.7
2023-04-08T08:28:03.000Z,9.2
2023-04-08T08:29:19.000Z,9.9
2023-04-08T08:30:35.000Z,8.8
2023-04-08T08:31:51.000Z,9
2023-04-08T08:33:08.000Z,8.9
2023-04-08T08:34:24.000Z,7.4
2023-04-08T08:35:39.000Z,7.4
2023-04-08T08:36:54.000Z,8.1
2023-04-08T08:38:10.000Z,7.4
2023-04-08T08:39:26.000Z,7.3
2023-04-08T08:40:41.000Z,8.2
2023-04-08T08:41:57.000Z,8.3
2023-04-08T08:43:13.000Z,8
2023-04-08T08:44:29.000Z,7.5
2023-04-08T08:45:45.000Z,7.1
2023-04-08T08:47:01.000Z,7.9
2023-04-08T08:48:17.000Z,8
2023-04-08T08:49:33.000Z,8.4
2023-04-08T08:50:50.000Z,8.2
2023-04-08T08:52:06.000Z,8.5
2023-04-08T08:53:22.000Z,7.4
2023-04-08T08:54:38.000Z,8.1
2023-04-08T08:55:54.000Z,8.8
2023-04-08T08:57:10.000Z,7.3
2023-04-08T08:58:25.000Z,7.5
2023-04-08T08:59:41.000Z,8.5
2023-04-08T09:00:58.000Z,8.5
2023-04-08T09:02:14.000Z,9
2023-04-08T09:03:30.000Z,8.7
2023-04-08T09:04:46.000Z,9
2023-04-08T09:06:02.000Z,8.6
2023-04-08T09:07:17.000Z,8.2
2023-04-08T09:08:32.000Z,8.3
2023-04-08T09:09:49.000Z,8.5
2023-04-08T09:11:05.000Z,7.9
2023-04-08T09:12:21.000Z,7.4
2023-04-08T09:13:37.000Z,8.3
2023-04-08T09:14:53.000Z,8
2023-04-08T09:16:09.000Z,8.2
2023-04-08T09:17:25.000Z,8.5
2023-04-08T09:19:58.000Z,8.1
2023-04-08T09:21:14.000Z,9
2023-04-08T09:22:30.000Z,8.7
2023-04-08T09:23:46.000Z,8
2023-04-08T09:25:01.000Z,9.1
2023-04-08T09:26:17.000Z,9.5
2023-04-08T09:27:33.000Z,9.5
2023-04-08T09:30:06.000Z,9.6
2023-04-08T09:31:21.000Z,7.5
2023-04-08T09:32:36.000Z,8
2023-04-08T09:33:51.000Z,8.3
2023-04-08T09:35:06.000Z,8.2
2023-04-08T09:36:22.000Z,8.1
2023-04-08T09:37:39.000Z,7.2
2023-04-08T09:38:55.000Z,8
2023-04-08T09:40:11.000Z,8.2
2023-04-08T09:41:27.000Z,7.9
2023-04-08T09:42:43.000Z,7.9
2023-04-08T09:43:59.000Z,7
2023-04-08T09:45:15.000Z,7
2023-04-08T09:46:32.000Z,6.9
2023-04-08T09:47:47.000Z,7.2
2023-04-08T09:49:02.000Z,5.9
2023-04-08T09:50:18.000Z,7.2
2023-04-08T09:51:34.000Z,6.1
2023-04-08T09:52:50.000Z,7.2
2023-04-08T09:54:06.000Z,7.9
2023-04-08T09:55:22.000Z,7.6
2023-04-08T09:56:39.000Z,7
2023-04-08T09:57:55.000Z,8
2023-04-08T09:59:11.000Z,8.2
2023-04-08T10:00:27.000Z,8.6
2023-04-08T10:01:43.000Z,7.5
2023-04-08T10:02:59.000Z,6.5
2023-04-08T10:04:15.000Z,7.2
2023-04-08T10:05:31.000Z,6.4
2023-04-08T10:06:47.000Z,6.4
2023-04-08T10:08:03.000Z,6.1
2023-04-08T10:09:19.000Z,6.3
2023-04-08T10:10:35.000Z,7.3
2023-04-08T10:11:51.000Z,7.3
2023-04-08T10:13:07.000Z,8.3
2023-04-08T10:14:22.000Z,7.4
2023-04-08T10:15:38.000Z,7.5
2023-04-08T10:16:53.000Z,7.2
2023-04-08T10:18:08.000Z,7
2023-04-08T10:19:24.000Z,6.9
2023-04-08T10:20:40.000Z,6.8
2023-04-08T10:21:56.000Z,7.2
2023-04-08T10:23:12.000Z,8.8
2023-04-08T10:24:29.000Z,6.5
2023-04-08T10:25:45.000Z,6.1
2023-04-08T10:27:01.000Z,7
2023-04-08T10:28:17.000Z,6.4
2023-04-08T10:29:33.000Z,6.7
2023-04-08T10:30:49.000Z,7.3
2023-04-08T10:32:05.000Z,7.9
2023-04-08T10:33:22.000Z,7.9
2023-04-08T10:34:37.000Z,6.9
2023-04-08T10:35:53.000Z,6.9
2023-04-08T10:37:09.000Z,7.5
2023-04-08T10:38:25.000Z,7.9
2023-04-08T10:39:41.000Z,7.7
2023-04-08T10:40:57.000Z,7.8
2023-04-08T10:42:13.000Z,6.6
2023-04-08T10:43:30.000Z,7.1
2023-04-08T10:44:46.000Z,7
2023-04-08T10:46:02.000Z,6.8
2023-04-08T10:47:18.000Z,9.7
2023-04-08T10:48:34.000Z,8.8
2023-04-08T10:49:50.000Z,9.9
2023-04-08T10:51:05.000Z,7.3
2023-04-08T10:52:22.000Z,8.8
2023-04-08T10:53:38.000Z,8.1
2023-04-08T10:54:53.000Z,7.1
2023-04-08T10:56:08.000Z,7.9
2023-04-08T10:57:24.000Z,7.4
2023-04-08T10:58:40.000Z,7.1
2023-04-08T10:59:55.000Z,7.2
2023-04-08T11:01:11.000Z,7.3
2023-04-08T11:02:27.000Z,8.7
2023-04-08T11:03:43.000Z,7.9
2023-04-08T11:04:59.000Z,7.2
2023-04-08T11:06:15.000Z,6.8
2023-04-08T11:07:31.000Z,7.7
2023-04-08T11:08:47.000Z,7.5
2023-04-08T11:10:03.000Z,7.5
2023-04-08T11:11:20.000Z,7
2023-04-08T11:12:36.000Z,7.4
2023-04-08T11:13:52.000Z,7.2
2023-04-08T11:15:08.000Z,6.5
2023-04-08T11:16:24.000Z,7.5
2023-04-08T11:17:39.000Z,6.1
2023-04-08T11:18:55.000Z,5.4
2023-04-08T11:20:12.000Z,6.2
2023-04-08T11:21:28.000Z,5.8
2023-04-08T11:22:44.000Z,5.4
2023-04-08T11:24:00.000Z,4.3
2023-04-08T11:25:16.000Z,5
2023-04-08T11:26:32.000Z,5
2023-04-08T11:27:48.000Z,5.3
2023-04-08T11:29:04.000Z,6.9
2023-04-08T11:30:21.000Z,6.5
2023-04-08T11:31:37.000Z,5.8
2023-04-08T11:32:52.000Z,6.6
2023-04-08T11:34:07.000Z,6.3
2023-04-08T11:35:23.000Z,5.7
2023-04-08T11:36:39.000Z,5.6
2023-04-08T11:37:54.000Z,6.5
2023-04-08T11:39:10.000Z,7.1
2023-04-08T11:40:26.000Z,8
2023-04-08T11:41:42.000Z,7.8
2023-04-08T11:42:58.000Z,7.5
2023-04-08T11:44:14.000Z,6.9
2023-04-08T11:45:30.000Z,8
2023-04-08T11:46:46.000Z,7.8
2023-04-08T11:48:03.000Z,7.2
2023-04-08T11:49:19.000Z,7.2
2023-04-08T11:50:35.000Z,7.2
2023-04-08T11:51:51.000Z,8
2023-04-08T11:53:07.000Z,7.9
2023-04-08T11:54:23.000Z,8
2023-04-08T11:55:38.000Z,7.4
2023-04-08T11:56:54.000Z,7.3
2023-04-08T11:58:11.000Z,7.3
2023-04-08T11:59:27.000Z,6.1
2023-04-08T12:00:43.000Z,6.8
2023-04-08T12:01:59.000Z,6.6
2023-04-08T12:03:15.000Z,7
2023-04-08T12:04:30.000Z,7.1
2023-04-08T12:05:45.000Z,6.9
2023-04-08T12:07:02.000Z,6.7
2023-04-08T12:08:18.000Z,7.3
2023-04-08T12:09:34.000Z,7.2
2023-04-08T12:10:49.000Z,7.2
2023-04-08T12:12:04.000Z,7.2
2023-04-08T12:13:20.000Z,7.4
2023-04-08T12:14:36.000Z,6.6
2023-04-08T12:15:53.000Z,6.3
2023-04-08T12:17:09.000Z,6.7
2023-04-08T12:18:25.000Z,6.8
2023-04-08T12:19:41.000Z,6.8
2023-04-08T12:20:57.000Z,6.8
2023-04-08T12:22:13.000Z,6.9
2023-04-08T12:23:29.000Z,6.5
2023-04-08T12:24:45.000Z,6.8
2023-04-08T12:26:02.000Z,7.6
2023-04-08T12:27:18.000Z,8.4
2023-04-08T12:28:33.000Z,7.9
2023-04-08T12:29:49.000Z,7.9
2023-04-08T12:31:05.000Z,7.3
2023-04-08T12:32:21.000Z,7.9
2023-04-08T12:33:37.000Z,8
2023-04-08T12:34:54.000Z,8.4
2023-04-08T12:36:10.000Z,8.4
2023-04-08T12:37:25.000Z,8.9
2023-04-08T12:38:41.000Z,8.5
2023-04-08T12:39:57.000Z,8.4
2023-04-08T12:41:13.000Z,8.5
2023-04-08T12:42:29.000Z,8.9
2023-04-08T12:45:02.000Z,9.8
2023-04-08T12:46:18.000Z,9.3
2023-04-08T12:47:34.000Z,9.4
2023-04-08T12:48:49.000Z,9.1
2023-04-08T12:50:04.000Z,10.2
2023-04-08T12:51:20.000Z,10
2023-04-08T12:52:36.000Z,10
2023-04-08T12:53:52.000Z,9.3
2023-04-08T12:55:07.000Z,10.4
2023-04-08T12:56:23.000Z,10.5
2023-04-08T12:57:39.000Z,10.1
2023-04-08T12:58:55.000Z,10.1
2023-04-08T13:00:11.000Z,10.5
2023-04-08T13:01:27.000Z,10.8
2023-04-08T13:02:44.000Z,11.1
2023-04-08T13:04:00.000Z,11.1
2023-04-08T13:05:16.000Z,11.2
2023-04-08T13:07:48.000Z,11.6
2023-04-08T13:09:04.000Z,11.8
2023-04-08T13:10:20.000Z,11.7
2023-04-08T13:11:35.000Z,11.6
2023-04-08T13:12:52.000Z,11.6
2023-04-08T13:14:08.000Z,10.8
2023-04-08T13:15:24.000Z,9.4
2023-04-08T13:16:40.000Z,9.8
2023-04-08T13:17:56.000Z,9.8
2023-04-08T13:19:12.000Z,9.7
2023-04-08T13:20:28.000Z,10.1
2023-04-08T13:21:44.000Z,9.8
2023-04-08T13:22:59.000Z,10.5
2023-04-08T13:24:15.000Z,10
2023-04-08T13:25:31.000Z,10.2
2023-04-08T13:26:47.000Z,10.8
2023-04-08T13:28:03.000Z,10.3
2023-04-08T13:30:36.000Z,9.8
2023-04-08T13:31:52.000Z,10.6
2023-04-08T13:33:08.000Z,10.4
2023-04-08T13:34:24.000Z,10.5
2023-04-08T13:35:40.000Z,11.5
2023-04-08T13:36:56.000Z,11.2
2023-04-08T13:38:12.000Z,11.7
2023-04-08T13:39:27.000Z,11.6
2023-04-08T13:40:44.000Z,11.8
2023-04-08T13:42:00.000Z,11.7
2023-04-08T13:43:16.000Z,11.9
2023-04-08T13:44:32.000Z,12.8
2023-04-08T13:45:48.000Z,12.3
2023-04-08T13:47:04.000Z,11.7
2023-04-08T13:48:20.000Z,12.6
2023-04-08T13:49:36.000Z,13
2023-04-08T13:50:51.000Z,12.4
2023-04-08T13:52:07.000Z,13.3
2023-04-08T13:53:23.000Z,13.7
2023-04-08T13:54:39.000Z,12.7
2023-04-08T13:55:55.000Z,12.7
2023-04-08T13:57:11.000Z,12.4
2023-04-08T13:58:27.000Z,12.6
2023-04-08T13:59:44.000Z,12.5
2023-04-08T14:01:00.000Z,12.3
2023-04-08T14:02:16.000Z,12.4
2023-04-08T14:03:32.000Z,12.9
2023-04-08T14:04:48.000Z,13.2
2023-04-08T14:06:04.000Z,12.8
2023-04-08T14:07:19.000Z,12.9
2023-04-08T14:08:36.000Z,13.8
2023-04-08T14:09:52.000Z,14.5
2023-04-08T14:11:08.000Z,13.8
2023-04-08T14:12:24.000Z,13.4
2023-04-08T14:13:40.000Z,14
2023-04-08T14:14:56.000Z,13.8
2023-04-08T14:16:11.000Z,13.4
2023-04-08T14:17:27.000Z,14.2
2023-04-08T14:18:42.000Z,14.5
2023-04-08T14:19:57.000Z,14.2
2023-04-08T14:21:13.000Z,14.2
2023-04-08T14:22:28.000Z,14.1
2023-04-08T14:23:43.000Z,14.3
2023-04-08T14:24:59.000Z,15.2
2023-04-08T14:26:16.000Z,15.6
2023-04-08T14:27:32.000Z,14.6
2023-04-08T14:28:48.000Z,15.3
2023-04-08T14:31:20.000Z,15.6
2023-04-08T14:32:36.000Z,15.4
2023-04-08T14:33:52.000Z,15.5
2023-04-08T14:35:08.000Z,14.7
2023-04-08T14:36:25.000Z,15.5
2023-04-08T14:37:41.000Z,16.9
2023-04-08T14:38:57.000Z,16.4
2023-04-08T14:40:12.000Z,16
2023-04-08T14:41:28.000Z,16.1
2023-04-08T14:42:44.000Z,16.1
2023-04-08T14:44:00.000Z,15.5
2023-04-08T14:45:17.000Z,16
2023-04-08T14:46:33.000Z,15.8
2023-04-08T14:47:49.000Z,15.2
2023-04-08T14:49:05.000Z,15.3
2023-04-08T14:50:20.000Z,16.1
2023-04-08T14:51:35.000Z,15.5
2023-04-08T14:52:50.000Z,15.5
2023-04-08T14:54:06.000Z,15
2023-04-08T14:55:22.000Z,15.9
2023-04-08T14:56:38.000Z,15.9
2023-04-08T14:57:54.000Z,15
2023-04-08T14:59:10.000Z,15.4
2023-04-08T15:00:26.000Z,14.9
2023-04-08T15:01:42.000Z,15.3
2023-04-08T15:02:58.000Z,15
2023-04-08T15:04:15.000Z,14.8
2023-04-08T15:05:31.000Z,15.6
2023-04-08T15:06:47.000Z,15.6
2023-04-08T15:08:03.000Z,15
2023-04-08T15:09:19.000Z,15.3
2023-04-08T15:10:34.000Z,15.1
2023-04-08T15:11:50.000Z,15.5
2023-04-08T15:13:07.000Z,15.4
2023-04-08T15:14:23.000Z,14.9
2023-04-08T15:15:39.000Z,14.3
2023-04-08T15:16:55.000Z,14.9
2023-04-08T15:18:11.000Z,14.5
2023-04-08T15:19:26.000Z,14.5
2023-04-08T15:20:41.000Z,14.1
2023-04-08T15:21:58.000Z,14.6
2023-04-08T15:23:14.000Z,14.2
2023-04-08T15:24:30.000Z,14.9
2023-04-08T15:25:44.000Z,14.2
2023-04-08T15:27:00.000Z,14.7
2023-04-08T15:28:15.000Z,13.7
2023-04-08T15:29:32.000Z,14.2
2023-04-08T15:30:48.000Z,13.9
2023-04-08T15:32:05.000Z,13.3
2023-04-08T15:33:21.000Z,13.8
2023-04-08T15:34:37.000Z,14.3
2023-04-08T15:35:53.000Z,15
2023-04-08T15:37:09.000Z,13.8
2023-04-08T15:39:41.000Z,13.2
2023-04-08T15:40:58.000Z,14.2
2023-04-08T15:42:14.000Z,14.4
2023-04-08T15:43:29.000Z,13.6
2023-04-08T15:44:45.000Z,13.7
2023-04-08T15:46:01.000Z,14.3
2023-04-08T15:47:17.000Z,13.9
2023-04-08T15:48:33.000Z,13.8
2023-04-08T15:49:49.000Z,14.3
2023-04-08T15:51:06.000Z,14.1
2023-04-08T15:52:22.000Z,14
2023-04-08T15:53:37.000Z,14.7
2023-04-08T15:54:52.000Z,14.9
2023-04-08T15:56:07.000Z,14.2
2023-04-08T15:57:22.000Z,14.3
2023-04-08T15:58:38.000Z,14.1
2023-04-08T15:59:55.000Z,14.4
2023-04-08T16:01:11.000Z,14.7
2023-04-08T16:02:27.000Z,14
2023-04-08T16:03:43.000Z,14.6
2023-04-08T16:04:59.000Z,14.5
2023-04-08T16:06:15.000Z,14.2
2023-04-08T16:07:31.000Z,14.8
2023-04-08T16:08:48.000Z,15
2023-04-08T16:10:04.000Z,14.6
2023-04-08T16:11:20.000Z,15.2
2023-04-08T16:12:36.000Z,15.4
2023-04-08T16:13:51.000Z,15.4
2023-04-08T16:15:07.000Z,15.6
2023-04-08T16:16:23.000Z,14.5
2023-04-08T16:17:39.000Z,14.8
2023-04-08T16:18:56.000Z,14.5
2023-04-08T16:20:12.000Z,14.6
2023-04-08T16:21:28.000Z,14.8
2023-04-08T16:22:43.000Z,15
2023-04-08T16:23:58.000Z,16
2023-04-08T16:25:14.000Z,15.9
2023-04-08T16:26:30.000Z,15.9
2023-04-08T16:27:47.000Z,15.8
2023-04-08T16:29:02.000Z,17
2023-04-08T16:30:17.000Z,15.9
2023-04-08T16:31:33.000Z,15.7
2023-04-08T16:32:49.000Z,15.9
2023-04-08T16:34:05.000Z,15.9
2023-04-08T16:35:21.000Z,15.7
2023-04-08T16:36:38.000Z,16.4
2023-04-08T16:37:54.000Z,15.9
2023-04-08T16:39:10.000Z,16
2023-04-08T16:40:26.000Z,16.8
2023-04-08T16:41:42.000Z,15.9
2023-04-08T16:42:58.000Z,15.6
2023-04-08T16:44:14.000Z,16.5
2023-04-08T16:45:30.000Z,16.1
2023-04-08T16:46:46.000Z,16.2
2023-04-08T16:48:02.000Z,16.2
2023-04-08T16:49:18.000Z,16.1
2023-04-08T16:50:34.000Z,17.3
2023-04-08T16:51:49.000Z,17.1
2023-04-08T16:53:05.000Z,17.7
2023-04-08T16:55:37.000Z,17.1
2023-04-08T16:56:52.000Z,17.9
2023-04-08T16:58:08.000Z,18.9
2023-04-08T16:59:24.000Z,19
2023-04-08T17:00:39.000Z,17.7
2023-04-08T17:01:54.000Z,16.4
2023-04-08T17:03:10.000Z,15
2023-04-08T17:04:27.000Z,16.4
2023-04-08T17:05:43.000Z,16.5
2023-04-08T17:06:59.000Z,14.8
2023-04-08T17:08:15.000Z,15.7
2023-04-08T17:09:31.000Z,15.3
2023-04-08T17:10:47.000Z,15.5
2023-04-08T17:12:03.000Z,15.3
2023-04-08T17:13:19.000Z,17
2023-04-08T17:14:36.000Z,16.5
2023-04-08T17:15:52.000Z,16.8
2023-04-08T17:17:08.000Z,15.2
2023-04-08T17:18:23.000Z,15.4
2023-04-08T17:19:39.000Z,16.2
2023-04-08T17:22:11.000Z,15.8
2023-04-08T17:23:28.000Z,15.6
2023-04-08T17:24:44.000Z,16.9
2023-04-08T17:26:00.000Z,19.9
2023-04-08T17:27:16.000Z,15.7
2023-04-08T17:28:32.000Z,16.6
2023-04-08T17:29:47.000Z,16.3
2023-04-08T17:31:02.000Z,19.9
2023-04-08T17:32:18.000Z,17.7
2023-04-08T17:33:33.000Z,16.7
2023-04-08T17:34:49.000Z,16
2023-04-08T17:36:05.000Z,17.3
2023-04-08T17:37:21.000Z,17.7